Prospect, NY (13435)

10:42 AM EST on January 26, 2015 (GMT -0500)
This'll Do Farm | Change Station
CLOSE
Current Station
Personal Weather Station
Location: Holland Patent, NY
Elevation: 830 ft
Nearby Weather Stations

Elev 830 ft 43.21 °N, 75.22 °W | Updated 13 minutes ago

Overcast
Overcast
9.8 °F
Feels Like 10 °F
N
3.0
Wind Variable Wind from East
Gusts 12.0 mph

Today
High -- | Low -- °F
--% Chance of Precip.
Yesterday
High -- | Low -- °F
Precip. -- in
7:22 AM 5:04 PM
Waxing Crescent, 44% visible
Pressure 30.09 in
Visibility 10.0 miles
Clouds Mostly Cloudy 5000 ft
Overcast 5500 ft
Windchill 10 °F
Dew Point 1 °F
Humidity 67%
Rainfall 0.00 in
Snow Depth Not available.
UV 0 out of 12
Pollen .10 out of 12
Air Quality Not available.
Flu Activity Not available.
METAR KRME 261453Z 10007KT 10SM BKN050 OVC055 M12/M18 A3006 RMK AO2 SLP190 T11171183 50001

More Conditions Fewer Conditions

Pressure 30.09 in
Visibility 10.0 miles
Clouds Mostly Cloudy 5000 ft
Overcast 5500 ft
Windchill 10 °F
Dew Point 1 °F
Humidity 67%
Rainfall 0.00 in
Snow Depth Not available.
UV 0 out of 12
Pollen .10 out of 12
Air Quality Not available.
Flu Activity Not available.
METAR KRME 261453Z 10007KT 10SM BKN050 OVC055 M12/M18 A3006 RMK AO2 SLP190 T11171183 50001

More Conditions Fewer Conditions

10-Day Weather Forecast

Almanac

Astronomy

Jan. 26, 2015 Rise Set
Actual Time
Civil Twilight
Nautical Twilight
Astronomical Twilight
Moon
Length of Visible Light
Length of Day
Tomorrow will be .
, % of the Moon is Illuminated

Today's Extremes

State Highs State Lows

Community

WunderPhotos

Upload Photos

1,790,249 photos uploaded!

WunderBlogs® & News

Nearby

Air Quality

  Air Quality AQ Index Pollutant
Not available.

Snow Depth

Station Depth Elevation

Earthquake Activity

City Distance Mag. Time & Date
Minimum magnitude displayed is 2.5.

Coastal Water Temperatures

Place Temperature

Nearby Weather Stations